Time;durP1;ratioP1;P1;durP2;ratioP2;P2;SDS_P1;SDS_P2;PMS_P1;PMS_P2;Temp;Humidity;BMP_temperature;BMP_pressure;BME280_temperature;BME280_humidity;BME280_pressure;Samples;Min_cycle;Max_cycle;Signal;HPM_P1;HPM_P2
2023/04/20 00:01:54;;;;;;;1.73;1.60;;;;;;;;;;5050126;28;20211;-89
2023/04/20 00:04:21;;;;;;;2.47;2.00;;;;;;;;;;5044088;28;20204;-90
2023/04/20 00:06:50;;;;;;;2.60;1.70;;;;;;;;;;5049330;28;20196;-89
2023/04/20 00:09:18;;;;;;;1.80;1.70;;;;;;;;;;5049029;28;20246;-90
2023/04/20 00:11:46;;;;;;;2.50;1.63;;;;;;;;;;5050246;28;20261;-89
2023/04/20 00:14:13;;;;;;;1.70;1.60;;;;;;;;;;5048995;28;20204;-90
2023/04/20 00:16:42;;;;;;;3.00;1.70;;;;;;;;;;5047778;28;20229;-90
2023/04/20 00:19:10;;;;;;;2.10;1.90;;;;;;;;;;5043315;28;20303;-89
2023/04/20 00:21:38;;;;;;;2.00;1.80;;;;;;;;;;5045666;28;20196;-90
2023/04/20 00:24:05;;;;;;;1.80;1.70;;;;;;;;;;5030149;28;20218;-90
2023/04/20 00:26:33;;;;;;;1.67;1.57;;;;;;;;;;5050183;28;20202;-89
2023/04/20 00:29:00;;;;;;;2.40;1.90;;;;;;;;;;5046471;28;20204;-90
2023/04/20 00:31:27;;;;;;;2.13;1.80;;;;;;;;;;5033298;28;20208;-90
2023/04/20 00:33:56;;;;;;;2.13;1.80;;;;;;;;;;5049429;28;20229;-90
2023/04/20 00:36:24;;;;;;;2.00;1.80;;;;;;;;;;5049325;28;20238;-89
2023/04/20 00:38:51;;;;;;;2.33;1.90;;;;;;;;;;5053478;28;20214;-90
2023/04/20 00:41:18;;;;;;;1.90;1.80;;;;;;;;;;5050243;28;20223;-90
2023/04/20 00:43:52;;;;;;;3.37;2.10;;;;;;;;;;5026871;28;20243;-90
2023/04/20 00:46:20;;;;;;;2.20;2.00;;;;;;;;;;5032504;28;20279;-90
2023/04/20 00:48:47;;;;;;;2.03;1.83;;;;;;;;;;5027825;28;20196;-90
2023/04/20 00:51:17;;;;;;;2.87;1.77;;;;;;;;;;5027225;28;20234;-90
2023/04/20 00:53:45;;;;;;;2.70;2.00;;;;;;;;;;5031645;28;20204;-90
2023/04/20 00:56:13;;;;;;;3.60;1.90;;;;;;;;;;5029539;28;20224;-90
2023/04/20 00:58:41;;;;;;;2.03;1.80;;;;;;;;;;5030461;28;20201;-90
2023/04/20 01:01:09;;;;;;;4.27;1.97;;;;;;;;;;5032271;28;20196;-90
2023/04/20 01:03:36;;;;;;;2.53;1.87;;;;;;;;;;5026042;28;20291;-90
2023/04/20 01:06:04;;;;;;;2.17;1.80;;;;;;;;;;5031801;28;20208;-90
2023/04/20 01:08:32;;;;;;;3.30;1.93;;;;;;;;;;5032371;28;20231;-89
2023/04/20 01:11:00;;;;;;;2.37;2.10;;;;;;;;;;5029519;28;20284;-89
2023/04/20 01:13:28;;;;;;;1.70;1.50;;;;;;;;;;5028849;28;20204;-90
2023/04/20 01:15:58;;;;;;;2.20;2.00;;;;;;;;;;5032292;28;20211;-89
2023/04/20 01:18:26;;;;;;;2.20;2.00;;;;;;;;;;5032522;28;20278;-90
2023/04/20 01:20:53;;;;;;;2.20;2.00;;;;;;;;;;5031386;28;20283;-90
2023/04/20 01:23:22;;;;;;;1.83;1.73;;;;;;;;;;5022899;28;20200;-90
2023/04/20 01:25:49;;;;;;;3.70;1.97;;;;;;;;;;5031060;28;20203;-90
2023/04/20 01:28:16;;;;;;;2.83;2.27;;;;;;;;;;5022500;28;20226;-90
2023/04/20 01:30:44;;;;;;;2.00;1.90;;;;;;;;;;5029716;28;20203;-90
2023/04/20 01:33:11;;;;;;;3.60;2.07;;;;;;;;;;5027698;28;20227;-89
2023/04/20 01:35:38;;;;;;;2.50;1.80;;;;;;;;;;5028786;28;20287;-90
2023/04/20 01:38:06;;;;;;;2.07;1.90;;;;;;;;;;5023481;28;20226;-89
2023/04/20 01:40:35;;;;;;;2.27;1.83;;;;;;;;;;5022219;28;20212;-90
2023/04/20 01:43:02;;;;;;;2.30;2.10;;;;;;;;;;5040981;28;20322;-90
2023/04/20 01:45:30;;;;;;;2.50;1.93;;;;;;;;;;5034298;28;20322;-90
2023/04/20 01:47:57;;;;;;;2.47;2.00;;;;;;;;;;5042790;28;20235;-90
2023/04/20 01:50:24;;;;;;;2.83;2.20;;;;;;;;;;5050345;28;20298;-89
2023/04/20 01:52:52;;;;;;;2.63;1.90;;;;;;;;;;5027732;28;20213;-90
2023/04/20 01:55:19;;;;;;;2.50;2.10;;;;;;;;;;5047395;28;20207;-89
2023/04/20 01:57:48;;;;;;;2.13;1.90;;;;;;;;;;5041170;28;20286;-90
2023/04/20 02:00:16;;;;;;;2.40;2.20;;;;;;;;;;5041247;28;20208;-90
2023/04/20 02:02:43;;;;;;;3.30;2.30;;;;;;;;;;5043477;28;20290;-90
2023/04/20 02:05:10;;;;;;;2.77;2.20;;;;;;;;;;5045447;28;20257;-90
2023/04/20 02:07:38;;;;;;;2.40;2.20;;;;;;;;;;5047720;28;20290;-90
2023/04/20 02:10:05;;;;;;;2.30;2.10;;;;;;;;;;5036759;28;20211;-89
2023/04/20 02:12:33;;;;;;;2.30;2.10;;;;;;;;;;5043360;28;20204;-91
2023/04/20 02:15:02;;;;;;;2.20;2.00;;;;;;;;;;5040897;28;20209;-90
2023/04/20 02:17:31;;;;;;;2.67;2.43;;;;;;;;;;5041026;28;20219;-90
2023/04/20 02:19:58;;;;;;;2.20;2.00;;;;;;;;;;5043559;28;20196;-90
2023/04/20 02:22:26;;;;;;;3.10;2.50;;;;;;;;;;5048037;28;20209;-90
2023/04/20 02:24:53;;;;;;;3.63;2.40;;;;;;;;;;5044308;28;20227;-90
2023/04/20 02:27:20;;;;;;;3.53;2.30;;;;;;;;;;5044877;28;20199;-90
2023/04/20 02:29:48;;;;;;;2.90;2.30;;;;;;;;;;5046458;28;20283;-90
2023/04/20 02:32:17;;;;;;;2.60;2.40;;;;;;;;;;5049880;28;20257;-90
2023/04/20 02:34:44;;;;;;;4.03;2.17;;;;;;;;;;5048836;28;20211;-90
2023/04/20 02:37:11;;;;;;;2.40;2.20;;;;;;;;;;5040476;28;20216;-89
2023/04/20 02:39:39;;;;;;;2.30;2.10;;;;;;;;;;5042759;28;20207;-90
2023/04/20 02:42:07;;;;;;;3.03;2.30;;;;;;;;;;5047082;28;20234;-90
2023/04/20 02:44:34;;;;;;;2.30;2.10;;;;;;;;;;5050982;28;20214;-90
2023/04/20 02:47:01;;;;;;;2.70;2.20;;;;;;;;;;5044148;28;20204;-90
2023/04/20 02:49:30;;;;;;;2.40;2.20;;;;;;;;;;5019458;28;20206;-90
2023/04/20 02:51:57;;;;;;;3.37;2.30;;;;;;;;;;5032907;28;20210;-90
2023/04/20 02:54:25;;;;;;;2.47;2.20;;;;;;;;;;5045355;28;20208;-90
2023/04/20 02:56:52;;;;;;;3.03;2.33;;;;;;;;;;5054033;28;20223;-90
2023/04/20 02:59:20;;;;;;;3.00;2.47;;;;;;;;;;5049132;28;20199;-90
2023/04/20 03:01:47;;;;;;;2.93;2.20;;;;;;;;;;5045916;28;20200;-90
2023/04/20 03:04:15;;;;;;;2.43;2.17;;;;;;;;;;5045410;28;20231;-90
2023/04/20 03:06:43;;;;;;;4.77;2.60;;;;;;;;;;5018112;28;20204;-90
2023/04/20 03:09:11;;;;;;;7.27;2.40;;;;;;;;;;5052295;28;20229;-90
2023/04/20 03:11:38;;;;;;;3.00;2.13;;;;;;;;;;5054818;28;20206;-90
2023/04/20 03:14:06;;;;;;;2.70;2.30;;;;;;;;;;5047861;28;20219;-90
2023/04/20 03:16:34;;;;;;;3.73;2.47;;;;;;;;;;5043093;28;20204;-90
2023/04/20 03:19:01;;;;;;;2.80;2.50;;;;;;;;;;5017887;28;20206;-90
2023/04/20 03:21:30;;;;;;;2.70;2.30;;;;;;;;;;5051477;28;20233;-89
2023/04/20 03:23:59;;;;;;;2.30;2.00;;;;;;;;;;5050521;28;20291;-89
2023/04/20 03:26:26;;;;;;;4.27;2.27;;;;;;;;;;5050787;28;20210;-90
2023/04/20 03:28:54;;;;;;;2.20;2.00;;;;;;;;;;5046079;28;20231;-89
2023/04/20 03:31:21;;;;;;;2.20;2.10;;;;;;;;;;5049059;28;20203;-90
2023/04/20 03:33:49;;;;;;;2.93;2.63;;;;;;;;;;5050686;28;20198;-90
2023/04/20 03:36:16;;;;;;;2.50;2.30;;;;;;;;;;5050977;28;20282;-89
2023/04/20 03:38:44;;;;;;;5.77;2.50;;;;;;;;;;5049931;28;20216;-89
2023/04/20 03:41:12;;;;;;;2.30;2.10;;;;;;;;;;5048788;28;20211;-89
2023/04/20 03:43:40;;;;;;;2.63;2.43;;;;;;;;;;5051661;28;20302;-90
2023/04/20 03:46:07;;;;;;;3.00;2.60;;;;;;;;;;5045644;28;20211;-90
2023/04/20 03:48:34;;;;;;;2.40;2.20;;;;;;;;;;5050816;28;20209;-89
2023/04/20 03:51:02;;;;;;;2.60;2.40;;;;;;;;;;5053056;28;20199;-89
2023/04/20 03:53:29;;;;;;;3.77;2.33;;;;;;;;;;5050002;28;20259;-90
2023/04/20 03:55:57;;;;;;;3.63;1.97;;;;;;;;;;5053589;28;20206;-90
2023/04/20 03:58:26;;;;;;;3.13;2.60;;;;;;;;;;5052165;28;20302;-90
2023/04/20 04:00:53;;;;;;;4.20;2.40;;;;;;;;;;5053414;28;20246;-89
2023/04/20 04:03:20;;;;;;;3.27;2.43;;;;;;;;;;5042939;28;20199;-90
2023/04/20 04:05:48;;;;;;;2.70;2.50;;;;;;;;;;5050513;28;20200;-89
2023/04/20 04:08:15;;;;;;;3.43;2.27;;;;;;;;;;5051271;28;20302;-90
2023/04/20 04:10:42;;;;;;;2.50;2.30;;;;;;;;;;5050698;28;20204;-90
2023/04/20 04:13:10;;;;;;;2.27;2.07;;;;;;;;;;5046509;28;20286;-90
2023/04/20 04:15:38;;;;;;;3.73;2.87;;;;;;;;;;5025815;28;20210;-90
2023/04/20 04:18:06;;;;;;;3.10;2.50;;;;;;;;;;5047564;28;20227;-90
2023/04/20 04:20:33;;;;;;;2.50;2.30;;;;;;;;;;5043638;28;20203;-90
2023/04/20 04:23:01;;;;;;;3.73;2.40;;;;;;;;;;5032093;28;20203;-90
2023/04/20 04:25:28;;;;;;;3.70;2.20;;;;;;;;;;5047931;28;20292;-90
2023/04/20 04:27:56;;;;;;;3.63;2.63;;;;;;;;;;5049647;28;20238;-90
2023/04/20 04:30:24;;;;;;;3.00;2.40;;;;;;;;;;5048725;28;20217;-90
2023/04/20 04:32:53;;;;;;;3.00;2.70;;;;;;;;;;5028742;28;20219;-91
2023/04/20 04:35:20;;;;;;;3.33;2.73;;;;;;;;;;5046409;28;20204;-89
2023/04/20 04:37:48;;;;;;;3.77;2.80;;;;;;;;;;5049610;28;20251;-90
2023/04/20 04:40:15;;;;;;;3.03;2.73;;;;;;;;;;5025853;28;20208;-90
2023/04/20 04:42:44;;;;;;;4.03;2.80;;;;;;;;;;5048490;28;20313;-91
2023/04/20 04:45:12;;;;;;;3.07;2.47;;;;;;;;;;5046617;28;20207;-91
2023/04/20 04:47:41;;;;;;;5.73;2.50;;;;;;;;;;5045154;28;20234;-91
2023/04/20 04:50:11;;;;;;;4.10;2.60;;;;;;;;;;5027797;28;20213;-91
2023/04/20 04:52:39;;;;;;;3.70;2.73;;;;;;;;;;5026444;28;20235;-90
2023/04/20 04:55:08;;;;;;;3.40;2.80;;;;;;;;;;5033618;28;20203;-90
2023/04/20 04:57:37;;;;;;;4.93;2.50;;;;;;;;;;5011620;28;20269;-90
2023/04/20 05:00:05;;;;;;;3.27;2.50;;;;;;;;;;5045280;28;20219;-89
2023/04/20 05:02:33;;;;;;;5.43;2.67;;;;;;;;;;5047036;28;20226;-90
2023/04/20 05:05:00;;;;;;;4.13;2.67;;;;;;;;;;5051280;28;20192;-90
2023/04/20 05:07:29;;;;;;;3.20;2.70;;;;;;;;;;5051336;28;20214;-89
2023/04/20 05:09:56;;;;;;;3.83;2.83;;;;;;;;;;5051788;28;20200;-89
2023/04/20 05:12:24;;;;;;;4.23;2.40;;;;;;;;;;5045213;28;20211;-88
2023/04/20 05:14:52;;;;;;;3.20;2.50;;;;;;;;;;5043842;28;20235;-89
2023/04/20 05:17:19;;;;;;;5.60;2.83;;;;;;;;;;5048705;28;20230;-88
2023/04/20 05:19:46;;;;;;;2.97;2.67;;;;;;;;;;5052828;28;20195;-88
2023/04/20 05:22:14;;;;;;;3.67;2.60;;;;;;;;;;5034769;28;20204;-90
2023/04/20 05:24:43;;;;;;;3.00;2.70;;;;;;;;;;5036797;28;20208;-88
2023/04/20 05:27:11;;;;;;;5.50;2.60;;;;;;;;;;5035097;28;20206;-90
2023/04/20 05:29:38;;;;;;;3.40;2.87;;;;;;;;;;5042336;28;20203;-90
2023/04/20 05:32:05;;;;;;;5.20;3.00;;;;;;;;;;5050801;28;20194;-90
2023/04/20 05:34:33;;;;;;;2.97;2.67;;;;;;;;;;5050878;28;20218;-90
2023/04/20 05:37:00;;;;;;;3.97;2.90;;;;;;;;;;5026398;28;20290;-87
2023/04/20 05:39:27;;;;;;;6.77;2.90;;;;;;;;;;5047813;28;20250;-89
2023/04/20 05:41:56;;;;;;;4.97;3.17;;;;;;;;;;5051134;28;20210;-87
2023/04/20 05:44:24;;;;;;;4.07;3.10;;;;;;;;;;5040589;28;20207;-88
2023/04/20 05:46:51;;;;;;;4.13;3.10;;;;;;;;;;5035146;28;20200;-88
2023/04/20 05:49:18;;;;;;;3.20;2.90;;;;;;;;;;5043841;28;20345;-88
2023/04/20 05:51:45;;;;;;;3.13;2.67;;;;;;;;;;5044676;28;20200;-87
2023/04/20 05:54:13;;;;;;;3.20;2.90;;;;;;;;;;5042109;28;20212;-88
2023/04/20 05:56:40;;;;;;;3.67;2.80;;;;;;;;;;5044116;28;20216;-88
2023/04/20 05:59:09;;;;;;;3.30;3.00;;;;;;;;;;5034790;28;20322;-88
2023/04/20 06:01:36;;;;;;;5.33;3.47;;;;;;;;;;5039326;28;20204;-89
2023/04/20 06:04:04;;;;;;;5.77;3.00;;;;;;;;;;5036608;28;20199;-90
2023/04/20 06:06:33;;;;;;;3.30;3.00;;;;;;;;;;5032665;28;20208;-90
2023/04/20 06:09:01;;;;;;;6.40;3.10;;;;;;;;;;5027396;28;20199;-88
2023/04/20 06:11:30;;;;;;;3.63;3.00;;;;;;;;;;5048723;28;20199;-88
2023/04/20 06:14:04;;;;;;;4.50;3.30;;;;;;;;;;5045644;28;20210;-88
2023/04/20 06:16:34;;;;;;;4.47;3.20;;;;;;;;;;5044365;28;20200;-89
2023/04/20 06:19:01;;;;;;;3.10;2.80;;;;;;;;;;5045503;28;20228;-88
2023/04/20 06:21:29;;;;;;;5.50;3.43;;;;;;;;;;5026186;28;20207;-88
2023/04/20 06:23:57;;;;;;;3.80;3.10;;;;;;;;;;5031856;28;20288;-89
2023/04/20 06:26:25;;;;;;;4.13;3.40;;;;;;;;;;5032668;28;20269;-88
2023/04/20 06:28:52;;;;;;;5.30;3.73;;;;;;;;;;5045348;28;20220;-88
2023/04/20 06:31:20;;;;;;;3.97;3.33;;;;;;;;;;5044966;28;20208;-89
2023/04/20 06:33:49;;;;;;;5.23;3.70;;;;;;;;;;5048250;28;20207;-87
2023/04/20 06:36:16;;;;;;;5.83;3.70;;;;;;;;;;5045667;28;20200;-88
2023/04/20 06:38:44;;;;;;;5.20;4.10;;;;;;;;;;5037595;28;20224;-88
2023/04/20 06:41:12;;;;;;;7.17;4.73;;;;;;;;;;5047677;28;20206;-88
2023/04/20 06:43:40;;;;;;;5.30;4.17;;;;;;;;;;5036116;28;20235;-88
2023/04/20 06:46:08;;;;;;;5.10;4.27;;;;;;;;;;5050295;28;20200;-88
2023/04/20 06:48:35;;;;;;;6.10;4.37;;;;;;;;;;5048205;28;20199;-88
2023/04/20 06:51:05;;;;;;;5.83;3.67;;;;;;;;;;5050187;28;20199;-88
2023/04/20 06:53:32;;;;;;;5.23;4.37;;;;;;;;;;5050957;28;20241;-89
2023/04/20 06:55:59;;;;;;;5.10;4.03;;;;;;;;;;5042029;28;20208;-89
2023/04/20 06:58:27;;;;;;;5.03;4.50;;;;;;;;;;5033659;28;20214;-88
2023/04/20 07:00:54;;;;;;;5.77;4.33;;;;;;;;;;5040009;28;20200;-88
2023/04/20 07:03:21;;;;;;;5.93;4.10;;;;;;;;;;5046408;28;20208;-88
2023/04/20 07:05:49;;;;;;;4.90;4.20;;;;;;;;;;5050242;28;20196;-87
2023/04/20 07:08:17;;;;;;;5.93;4.60;;;;;;;;;;5031069;28;20208;-88
2023/04/20 07:10:45;;;;;;;5.47;4.60;;;;;;;;;;5042772;28;20195;-88
2023/04/20 07:13:12;;;;;;;6.27;4.63;;;;;;;;;;5043921;28;20200;-88
2023/04/20 07:15:39;;;;;;;10.27;6.83;;;;;;;;;;5046759;28;20435;-88
2023/04/20 07:18:07;;;;;;;7.87;5.80;;;;;;;;;;5053519;28;20196;-88
2023/04/20 07:20:34;;;;;;;5.80;5.00;;;;;;;;;;5047641;28;20191;-88
2023/04/20 07:23:01;;;;;;;6.87;5.30;;;;;;;;;;5028276;28;20223;-88
2023/04/20 07:25:31;;;;;;;6.20;5.23;;;;;;;;;;5052040;28;20199;-88
2023/04/20 07:27:59;;;;;;;6.47;4.73;;;;;;;;;;5049201;28;20214;-88
2023/04/20 07:30:26;;;;;;;5.30;4.80;;;;;;;;;;5031404;28;20195;-88
2023/04/20 07:32:53;;;;;;;5.30;4.80;;;;;;;;;;5046752;28;20196;-88
2023/04/20 07:35:21;;;;;;;5.43;4.93;;;;;;;;;;5029964;28;20200;-89
2023/04/20 07:37:48;;;;;;;7.13;5.40;;;;;;;;;;5051018;28;20286;-88
2023/04/20 07:40:16;;;;;;;6.27;5.37;;;;;;;;;;5045728;28;20223;-88
2023/04/20 07:42:44;;;;;;;4.83;4.43;;;;;;;;;;5022433;28;20220;-89
2023/04/20 07:45:13;;;;;;;5.97;4.83;;;;;;;;;;5044388;28;20200;-88
2023/04/20 07:47:42;;;;;;;5.50;4.67;;;;;;;;;;5047333;28;20207;-88
2023/04/20 07:50:10;;;;;;;5.20;4.80;;;;;;;;;;5051351;28;20292;-88
2023/04/20 07:52:37;;;;;;;5.23;4.83;;;;;;;;;;5048645;28;20232;-88
2023/04/20 07:55:04;;;;;;;5.20;4.70;;;;;;;;;;5041544;28;20200;-88
2023/04/20 07:57:32;;;;;;;6.23;5.63;;;;;;;;;;5047538;28;20221;-87
2023/04/20 08:00:02;;;;;;;5.23;4.73;;;;;;;;;;5053313;28;20219;-88
2023/04/20 08:02:32;;;;;;;5.73;5.23;;;;;;;;;;5048855;28;20207;-88
2023/04/20 08:04:59;;;;;;;5.20;4.70;;;;;;;;;;5031820;28;20207;-87
2023/04/20 08:07:27;;;;;;;5.90;5.37;;;;;;;;;;5051710;28;20204;-88
2023/04/20 08:09:55;;;;;;;6.20;4.97;;;;;;;;;;5040531;28;20235;-88
2023/04/20 08:12:22;;;;;;;4.67;4.27;;;;;;;;;;5048491;28;20208;-88
2023/04/20 08:14:50;;;;;;;5.73;5.23;;;;;;;;;;5023155;28;20204;-88
2023/04/20 08:17:18;;;;;;;5.00;4.60;;;;;;;;;;5050668;28;20199;-88
2023/04/20 08:19:45;;;;;;;5.00;4.60;;;;;;;;;;5048892;28;20219;-87
2023/04/20 08:22:13;;;;;;;5.13;4.73;;;;;;;;;;5049817;28;20202;-88
2023/04/20 08:24:40;;;;;;;5.20;4.80;;;;;;;;;;5049721;28;20277;-87
2023/04/20 08:27:09;;;;;;;6.00;5.00;;;;;;;;;;5026661;28;20199;-87
2023/04/20 08:29:36;;;;;;;5.40;4.90;;;;;;;;;;5049866;28;20205;-88
2023/04/20 08:32:04;;;;;;;6.27;5.60;;;;;;;;;;5033698;28;20257;-88
2023/04/20 08:34:33;;;;;;;6.43;5.07;;;;;;;;;;5052246;28;20203;-88
2023/04/20 08:37:00;;;;;;;5.27;4.67;;;;;;;;;;5048869;28;20259;-88
2023/04/20 08:39:28;;;;;;;5.17;4.67;;;;;;;;;;5034325;28;20251;-87
2023/04/20 08:41:56;;;;;;;4.90;4.43;;;;;;;;;;5043480;28;20292;-88
2023/04/20 08:44:23;;;;;;;5.10;4.60;;;;;;;;;;5046524;28;20312;-88
2023/04/20 08:46:51;;;;;;;5.03;4.53;;;;;;;;;;5043381;28;20203;-88
2023/04/20 08:49:19;;;;;;;5.67;5.17;;;;;;;;;;5041269;28;20202;-88
2023/04/20 08:51:48;;;;;;;5.37;4.80;;;;;;;;;;5044276;28;20395;-88
2023/04/20 08:54:16;;;;;;;5.20;4.70;;;;;;;;;;5037754;28;20211;-88
2023/04/20 08:56:47;;;;;;;5.53;4.77;;;;;;;;;;5038595;28;20217;-88
2023/04/20 08:59:16;;;;;;;5.30;4.80;;;;;;;;;;5046108;28;20314;-89
2023/04/20 09:01:45;;;;;;;5.30;4.43;;;;;;;;;;5044093;28;20237;-87
2023/04/20 09:04:19;;;;;;;5.17;4.67;;;;;;;;;;5045732;28;20200;-87
2023/04/20 09:06:49;;;;;;;4.23;3.93;;;;;;;;;;5031230;28;20210;-87
2023/04/20 09:09:17;;;;;;;4.30;4.00;;;;;;;;;;5049168;28;20218;-87
2023/04/20 09:11:45;;;;;;;4.70;4.30;;;;;;;;;;5028596;28;20204;-87
2023/04/20 09:14:13;;;;;;;4.70;4.30;;;;;;;;;;5042129;28;20196;-87
2023/04/20 09:16:49;;;;;;;4.77;4.37;;;;;;;;;;5041734;28;20208;-87
2023/04/20 09:19:22;;;;;;;4.93;3.73;;;;;;;;;;5034458;28;20300;-88
2023/04/20 09:21:51;;;;;;;5.10;4.60;;;;;;;;;;5047121;28;20210;-88
2023/04/20 09:24:18;;;;;;;4.77;4.33;;;;;;;;;;5043213;28;20219;-87
2023/04/20 09:26:46;;;;;;;4.37;3.97;;;;;;;;;;5037803;28;20213;-87
2023/04/20 09:29:17;;;;;;;4.40;4.00;;;;;;;;;;5033317;28;20212;-87
2023/04/20 09:31:44;;;;;;;4.37;3.97;;;;;;;;;;5048705;28;20270;-87
2023/04/20 09:34:13;;;;;;;4.70;4.30;;;;;;;;;;5051979;28;20203;-87
2023/04/20 09:36:41;;;;;;;5.10;4.60;;;;;;;;;;5052167;28;20206;-88
2023/04/20 09:39:11;;;;;;;6.03;4.90;;;;;;;;;;5052743;28;20231;-88
2023/04/20 09:41:39;;;;;;;4.93;4.47;;;;;;;;;;5041665;28;20208;-88
2023/04/20 09:44:07;;;;;;;4.70;4.30;;;;;;;;;;5046075;28;20235;-88
2023/04/20 09:46:35;;;;;;;4.27;3.97;;;;;;;;;;5048948;28;20246;-88
2023/04/20 09:49:04;;;;;;;4.10;3.80;;;;;;;;;;5032449;28;20203;-87
2023/04/20 09:51:32;;;;;;;4.00;3.70;;;;;;;;;;5047609;28;20223;-88
2023/04/20 09:54:00;;;;;;;4.10;3.77;;;;;;;;;;5037269;28;20196;-88
2023/04/20 09:56:29;;;;;;;4.50;4.10;;;;;;;;;;5034560;28;20208;-89
2023/04/20 09:58:57;;;;;;;4.10;3.80;;;;;;;;;;5039701;28;20199;-88
2023/04/20 10:01:24;;;;;;;4.23;3.83;;;;;;;;;;5040933;28;20271;-88
2023/04/20 10:03:53;;;;;;;4.70;4.40;;;;;;;;;;5044213;28;20211;-88
2023/04/20 10:06:22;;;;;;;4.10;3.80;;;;;;;;;;5043950;28;20223;-88
2023/04/20 10:08:50;;;;;;;4.70;4.30;;;;;;;;;;5040050;28;20219;-88
2023/04/20 10:11:27;;;;;;;4.67;4.27;;;;;;;;;;5042082;28;20204;-88
2023/04/20 10:13:56;;;;;;;6.17;4.57;;;;;;;;;;5044365;28;20199;-88
2023/04/20 10:16:23;;;;;;;4.60;4.20;;;;;;;;;;5041624;28;20211;-88
2023/04/20 10:18:57;;;;;;;5.53;5.00;;;;;;;;;;5050023;28;20204;-88
2023/04/20 10:21:24;;;;;;;5.60;5.10;;;;;;;;;;5043753;28;20196;-88
2023/04/20 10:23:51;;;;;;;5.70;5.10;;;;;;;;;;5049158;28;20207;-87
2023/04/20 10:26:19;;;;;;;5.83;5.27;;;;;;;;;;5039705;28;20215;-88
2023/04/20 10:28:47;;;;;;;5.53;4.97;;;;;;;;;;5042217;28;20227;-88
2023/04/20 10:31:16;;;;;;;5.23;4.73;;;;;;;;;;5017201;28;20200;-90
2023/04/20 10:33:50;;;;;;;5.43;4.73;;;;;;;;;;5028351;28;20204;-88
2023/04/20 10:36:23;;;;;;;5.13;4.63;;;;;;;;;;5049604;28;20204;-87
2023/04/20 10:38:52;;;;;;;4.67;4.27;;;;;;;;;;5038529;28;20212;-88
2023/04/20 10:41:19;;;;;;;5.83;5.27;;;;;;;;;;5032663;28;20215;-88
2023/04/20 10:43:47;;;;;;;5.77;4.70;;;;;;;;;;5039352;28;20231;-87
2023/04/20 10:46:16;;;;;;;5.43;4.83;;;;;;;;;;5042335;28;20214;-88
2023/04/20 10:48:56;;;;;;;5.23;4.80;;;;;;;;;;5048617;28;20203;-88
2023/04/20 10:51:24;;;;;;;6.97;4.87;;;;;;;;;;5033073;28;20222;-88
2023/04/20 10:54:00;;;;;;;5.20;4.70;;;;;;;;;;5039878;28;20203;-88
2023/04/20 10:56:28;;;;;;;7.00;4.93;;;;;;;;;;5043060;28;20241;-87
2023/04/20 10:58:55;;;;;;;5.03;4.53;;;;;;;;;;5045513;28;20208;-87
2023/04/20 11:01:24;;;;;;;4.97;4.53;;;;;;;;;;5019878;28;20308;-88
2023/04/20 11:03:52;;;;;;;4.77;4.37;;;;;;;;;;5036797;28;20204;-88
2023/04/20 11:06:19;;;;;;;5.20;4.70;;;;;;;;;;5041139;28;20207;-89
2023/04/20 11:08:46;;;;;;;5.30;4.80;;;;;;;;;;5040615;28;20200;-88
2023/04/20 11:11:20;;;;;;;6.03;5.47;;;;;;;;;;5045543;28;20284;-88
2023/04/20 11:13:47;;;;;;;5.60;5.03;;;;;;;;;;5039032;28;20215;-87
2023/04/20 11:16:16;;;;;;;5.43;4.93;;;;;;;;;;5043232;28;20209;-88
2023/04/20 11:18:51;;;;;;;4.93;4.53;;;;;;;;;;5036896;28;20212;-87
2023/04/20 11:21:19;;;;;;;4.87;4.47;;;;;;;;;;5041110;28;20227;-88
2023/04/20 11:23:46;;;;;;;6.03;5.43;;;;;;;;;;5037821;28;20204;-88
2023/04/20 11:26:13;;;;;;;6.53;4.67;;;;;;;;;;5044757;28;20207;-88
2023/04/20 11:28:51;;;;;;;5.90;5.30;;;;;;;;;;5045099;28;20202;-89
2023/04/20 11:31:19;;;;;;;6.30;5.70;;;;;;;;;;5042178;28;20207;-88
2023/04/20 11:33:47;;;;;;;9.03;8.23;;;;;;;;;;5051702;28;20299;-88
2023/04/20 11:36:22;;;;;;;5.73;5.00;;;;;;;;;;5047550;28;20200;-88
2023/04/20 11:38:50;;;;;;;5.63;5.13;;;;;;;;;;5041553;28;20276;-88
2023/04/20 11:41:17;;;;;;;4.77;4.37;;;;;;;;;;5041389;28;20242;-88
2023/04/20 11:43:45;;;;;;;5.97;5.47;;;;;;;;;;5045342;28;20318;-88
2023/04/20 11:46:15;;;;;;;5.30;4.80;;;;;;;;;;5043629;28;20223;-89
2023/04/20 11:48:43;;;;;;;6.70;6.17;;;;;;;;;;5048402;28;20207;-88
2023/04/20 11:51:10;;;;;;;6.80;6.30;;;;;;;;;;5046311;28;20283;-88
2023/04/20 11:53:39;;;;;;;5.73;5.13;;;;;;;;;;5049386;28;20204;-88
2023/04/20 11:56:07;;;;;;;5.20;4.80;;;;;;;;;;5023297;28;20288;-90
2023/04/20 11:58:35;;;;;;;4.93;4.50;;;;;;;;;;5045130;28;20226;-89
2023/04/20 12:01:04;;;;;;;7.53;6.83;;;;;;;;;;5052428;28;20302;-89
2023/04/20 12:03:32;;;;;;;7.40;6.73;;;;;;;;;;5041417;28;20257;-89
2023/04/20 12:05:59;;;;;;;5.30;4.43;;;;;;;;;;5050531;28;20204;-90
2023/04/20 12:08:27;;;;;;;4.67;4.37;;;;;;;;;;5049283;28;20208;-88
2023/04/20 12:10:55;;;;;;;4.50;4.00;;;;;;;;;;5015346;28;20200;-91
2023/04/20 12:13:22;;;;;;;3.90;3.50;;;;;;;;;;5043851;28;20208;-88
2023/04/20 12:15:50;;;;;;;4.43;3.90;;;;;;;;;;5043222;28;20303;-88
2023/04/20 12:18:18;;;;;;;4.30;3.90;;;;;;;;;;5040223;28;20254;-88
2023/04/20 12:20:46;;;;;;;4.07;3.77;;;;;;;;;;5050106;28;20223;-88
2023/04/20 12:23:13;;;;;;;3.87;3.57;;;;;;;;;;5047757;28;20231;-89
2023/04/20 12:25:41;;;;;;;4.60;4.23;;;;;;;;;;5045582;28;20275;-88
2023/04/20 12:28:10;;;;;;;4.10;3.80;;;;;;;;;;5049850;28;20246;-88
2023/04/20 12:30:38;;;;;;;3.43;3.20;;;;;;;;;;5048219;28;20206;-88
2023/04/20 12:33:05;;;;;;;4.23;3.80;;;;;;;;;;5041012;28;20207;-89
2023/04/20 12:35:33;;;;;;;4.20;3.90;;;;;;;;;;5026703;28;20279;-88
2023/04/20 12:38:00;;;;;;;4.40;4.00;;;;;;;;;;5042357;28;20200;-91
2023/04/20 12:40:27;;;;;;;4.20;3.80;;;;;;;;;;5042758;28;20259;-91
2023/04/20 12:42:55;;;;;;;4.47;3.60;;;;;;;;;;5046497;28;20269;-92
2023/04/20 12:45:24;;;;;;;4.17;3.77;;;;;;;;;;5043540;28;20228;-91
2023/04/20 12:47:51;;;;;;;4.03;3.73;;;;;;;;;;5053952;28;20191;-88
2023/04/20 12:50:18;;;;;;;4.43;4.03;;;;;;;;;;5045768;28;20208;-90
2023/04/20 12:52:46;;;;;;;4.53;3.90;;;;;;;;;;5036792;28;20200;-89
2023/04/20 12:55:14;;;;;;;4.10;3.80;;;;;;;;;;5028918;28;20287;-92
2023/04/20 12:57:41;;;;;;;4.17;3.83;;;;;;;;;;5044146;28;20204;-90
2023/04/20 13:00:09;;;;;;;4.30;3.90;;;;;;;;;;5048886;28;20255;-88
2023/04/20 13:02:38;;;;;;;4.45;4.15;;;;;;;;;;5049738;28;20211;-89
2023/04/20 13:05:05;;;;;;;7.88;4.05;;;;;;;;;;5043649;28;20210;-88
2023/04/20 13:07:33;;;;;;;4.15;3.78;;;;;;;;;;5044359;28;20204;-89
2023/04/20 13:10:00;;;;;;;4.15;3.85;;;;;;;;;;5053070;28;20227;-88
2023/04/20 13:12:28;;;;;;;4.28;3.88;;;;;;;;;;5046813;28;20286;-88
2023/04/20 13:14:55;;;;;;;4.20;3.90;;;;;;;;;;5055279;28;20219;-88
2023/04/20 13:17:22;;;;;;;4.50;4.10;;;;;;;;;;5043632;28;20240;-88
2023/04/20 13:19:52;;;;;;;4.45;4.05;;;;;;;;;;5039427;28;20250;-89
2023/04/20 13:22:19;;;;;;;4.57;4.18;;;;;;;;;;5037214;28;20196;-89
2023/04/20 13:24:46;;;;;;;4.65;4.25;;;;;;;;;;5041051;28;20210;-88
2023/04/20 13:27:14;;;;;;;4.40;4.10;;;;;;;;;;5005718;28;20222;-88
2023/04/20 13:29:41;;;;;;;4.18;3.88;;;;;;;;;;5031608;28;20219;-88
2023/04/20 13:32:09;;;;;;;4.30;4.00;;;;;;;;;;5042197;28;20199;-89
2023/04/20 13:34:36;;;;;;;4.53;4.13;;;;;;;;;;5051435;28;20214;-89
2023/04/20 13:37:05;;;;;;;4.60;4.20;;;;;;;;;;5050490;28;20215;-88
2023/04/20 13:39:32;;;;;;;4.45;3.92;;;;;;;;;;5047230;28;20270;-88
2023/04/20 13:42:00;;;;;;;8.80;8.10;;;;;;;;;;5047670;28;20250;-90
2023/04/20 13:44:27;;;;;;;6.93;6.30;;;;;;;;;;5042366;28;20207;-88
2023/04/20 13:46:55;;;;;;;4.70;4.30;;;;;;;;;;5043044;28;20200;-88
2023/04/20 13:49:22;;;;;;;4.40;4.00;;;;;;;;;;5054408;28;20207;-89
2023/04/20 13:51:50;;;;;;;4.03;3.47;;;;;;;;;;5049045;28;20268;-88
2023/04/20 13:54:19;;;;;;;4.03;3.60;;;;;;;;;;5052740;28;20215;-89
2023/04/20 13:56:46;;;;;;;5.53;3.35;;;;;;;;;;5045702;28;20234;-88
2023/04/20 13:59:14;;;;;;;4.45;3.80;;;;;;;;;;5044685;28;20200;-89
2023/04/20 14:01:41;;;;;;;3.65;3.30;;;;;;;;;;5042613;28;20239;-90
2023/04/20 14:04:09;;;;;;;3.85;3.55;;;;;;;;;;5042693;28;20227;-90
2023/04/20 14:06:36;;;;;;;5.07;3.90;;;;;;;;;;5043662;28;20298;-90
2023/04/20 14:09:04;;;;;;;4.60;4.20;;;;;;;;;;5028868;28;20214;-90
2023/04/20 14:11:33;;;;;;;3.88;3.42;;;;;;;;;;5045049;28;20214;-90
2023/04/20 14:14:01;;;;;;;4.47;3.20;;;;;;;;;;5037938;28;20210;-90
2023/04/20 14:16:28;;;;;;;5.82;3.60;;;;;;;;;;5038138;28;20211;-90
2023/04/20 14:18:56;;;;;;;3.40;3.10;;;;;;;;;;5038933;28;20295;-90
2023/04/20 14:21:23;;;;;;;3.72;3.33;;;;;;;;;;5042704;28;20219;-90
2023/04/20 14:23:52;;;;;;;4.55;3.42;;;;;;;;;;5045767;28;20235;-90
2023/04/20 14:26:19;;;;;;;3.75;3.17;;;;;;;;;;5043485;28;20206;-89
2023/04/20 14:28:50;;;;;;;3.80;3.42;;;;;;;;;;5044657;28;20258;-90
2023/04/20 14:31:17;;;;;;;4.07;3.45;;;;;;;;;;5042385;28;20286;-90
2023/04/20 14:33:45;;;;;;;4.03;3.50;;;;;;;;;;5039758;28;20246;-89
2023/04/20 14:36:13;;;;;;;5.43;3.67;;;;;;;;;;5040423;28;20262;-90
2023/04/20 14:38:40;;;;;;;5.95;3.47;;;;;;;;;;5052335;28;20290;-91
2023/04/20 14:41:07;;;;;;;3.42;3.08;;;;;;;;;;5050535;28;20219;-90
2023/04/20 14:43:35;;;;;;;3.97;3.67;;;;;;;;;;5043998;28;20238;-88
2023/04/20 14:46:05;;;;;;;3.72;3.30;;;;;;;;;;5044702;28;20245;-87
2023/04/20 14:48:34;;;;;;;5.22;4.72;;;;;;;;;;5042554;28;20214;-88